Terminal Aerodrome Forecast
Issued by NWS Shreveport, LA

Home | Current Version | Previous Version | Text Only | Print | Product List | Glossary On
Versions: 1 2 3 4 5 6 7 8 9 10 11 12 13 14 15 16 17 18 19 20
000
FTUS44 KSHV 220211 AAA
TAFLFK
TAF AMD
KLFK 220211Z 2202/2224 16012KT P6SM BKN019 OVC027
     FM220500 17014G22KT P6SM VCTS OVC025CB
      TEMPO 2206/2209 VRB20G40KT 2SM TSRA BR OVC015CB
     FM220900 24004KT P6SM OVC050
     FM221200 25005KT P6SM BKN080
     FM221500 28011KT P6SM SCT250=

USA.gov is the U.S. government's official web portal to all federal, state and local government web resources and services.